Hlavní strana
METAR-TAF:

METAR-TAF

Letiště :

Zeltweg, Rakousko

zeměpisná šířka: 47-12N, zeměpisná délka: 014-45E, výška: 677 m

Aktuální stav počasí

Zpráva byla vytvořena před 1 hodinou a 5 minutami, v 03:50 UTC
vítr z různých směrů 2 kt
Teplota 1°C
Vlhkost vzduchu 80%
Tlak 1018 hPa
Viditelnost: 7000 m

METAR: LOXZ 180350Z VRB02KT 7000 SCT020SC BKN050SC 01/M02 Q1018

Čas: 05:55 (04:55 UTC)

Předpověď počasí

Zpráva byla vytvořena před 17 hodinami a 40 minutami, v 11:15 UTC
Předpověď platná od 17 v 12 UTC do 17 v 21 UTC
Západojihozápadní vítr 10 kt
Viditelnost 10 km a více
Skoro jasno ve výšce 2000 ft
Polojasno ve výšce 4000 ft
Oblačno až skoro zataženo ve výšce 15000 ft
Změna
od 17 v 16 UTC do 17 v 18 UTC
vítr z různých směrů 3 kt

TAF: LOXZ 171115Z 1712/1721 25010KT 9999 FEW020 SCT040 BKN150 BECMG 1716/1718 VRB03KT

Stav a předpovědi počasí z více než 4 000 letišť (zprávy METAR a TAF).

Červené a žluté tečky na mapě představují dostupné meteorologické stanice.

Když kurzor umístíte na tečku, zobrazí se název stanice.

Pak kliknutím zobrazíte stav a předpověď počasí.

Chcete-li změnit mapu, kliknutím na zelené tlačítko se znaménkem +mapu přiblížíte, kliknutím na zelené tlačítko se znaménkem – mapu oddálíte a kliknutím na zelené šipky přejdete na sousední mapy.


METAR-TAF: